createdAt,value
2018-05-29T00:00:59.018Z,84.50
2018-05-29T00:03:26.445Z,84.60
2018-05-29T00:05:53.893Z,84.60
2018-05-29T00:08:21.740Z,84.70
2018-05-29T00:10:49.213Z,84.60
2018-05-29T00:13:16.696Z,84.50
2018-05-29T00:15:44.132Z,84.60
2018-05-29T00:18:11.952Z,84.60
2018-05-29T00:20:39.420Z,84.70
2018-05-29T00:23:06.936Z,84.70
2018-05-29T00:25:34.795Z,84.80
2018-05-29T00:28:02.259Z,84.80
2018-05-29T00:30:29.700Z,84.90
2018-05-29T00:32:57.153Z,84.90
2018-05-29T00:35:24.596Z,84.80
2018-05-29T00:37:52.117Z,85.00
2018-05-29T00:40:19.569Z,84.90
2018-05-29T00:42:47.097Z,85.10
2018-05-29T00:45:14.558Z,85.20
2018-05-29T00:47:41.991Z,85.20
2018-05-29T00:50:09.491Z,85.40
2018-05-29T00:52:36.944Z,85.60
2018-05-29T00:55:16.196Z,85.70
2018-05-29T00:57:43.636Z,85.70
2018-05-29T01:00:11.143Z,85.90
2018-05-29T01:02:38.792Z,86.10
2018-05-29T01:05:06.458Z,86.20
2018-05-29T01:07:33.912Z,86.40
2018-05-29T01:10:01.401Z,86.40
2018-05-29T01:12:28.846Z,86.60
2018-05-29T01:14:56.299Z,86.40
2018-05-29T01:17:23.751Z,86.50
2018-05-29T01:19:51.211Z,86.50
2018-05-29T01:22:18.696Z,86.50
2018-05-29T01:24:46.235Z,86.50
2018-05-29T01:27:13.688Z,86.80
2018-05-29T01:29:41.160Z,86.80
2018-05-29T01:32:08.802Z,87.00
2018-05-29T01:34:36.288Z,87.00
2018-05-29T01:37:03.723Z,87.00
2018-05-29T01:39:31.179Z,87.20
2018-05-29T01:41:58.634Z,87.20
2018-05-29T01:44:26.474Z,87.20
2018-05-29T01:46:53.912Z,88.00
2018-05-29T01:49:21.353Z,87.00
2018-05-29T01:51:48.830Z,87.30
2018-05-29T01:54:16.383Z,87.30
2018-05-29T01:56:43.872Z,87.30
2018-05-29T01:59:11.323Z,87.30
2018-05-29T02:01:38.768Z,87.50
2018-05-29T02:04:06.563Z,87.50
2018-05-29T02:06:34.113Z,87.70
2018-05-29T02:09:01.568Z,87.80
2018-05-29T02:11:29.030Z,87.90
2018-05-29T02:13:56.842Z,88.10
2018-05-29T02:16:24.303Z,88.10
2018-05-29T02:18:52.068Z,88.20
2018-05-29T02:21:19.549Z,88.30
2018-05-29T02:23:47.761Z,88.50
2018-05-29T02:26:15.261Z,88.40
2018-05-29T02:28:43.232Z,88.60
2018-05-29T02:31:10.675Z,88.70
2018-05-29T02:33:38.563Z,88.70
2018-05-29T02:36:06.115Z,88.80
2018-05-29T02:38:33.543Z,88.80
2018-05-29T02:41:01.365Z,88.90
2018-05-29T02:43:28.848Z,88.80
2018-05-29T02:45:56.311Z,89.00
2018-05-29T02:48:23.756Z,88.90
2018-05-29T02:50:51.201Z,88.90
2018-05-29T02:53:18.660Z,88.80
2018-05-29T02:55:46.165Z,88.90
2018-05-29T02:58:13.611Z,88.80
2018-05-29T03:00:41.064Z,88.90
2018-05-29T03:03:08.936Z,88.90
2018-05-29T03:05:36.392Z,88.80
2018-05-29T03:08:03.907Z,88.90
2018-05-29T03:10:31.326Z,88.90
2018-05-29T03:12:58.789Z,88.90
2018-05-29T03:15:26.248Z,88.90
2018-05-29T03:17:53.716Z,89.00
2018-05-29T03:20:21.243Z,88.90
2018-05-29T03:22:48.713Z,88.90
2018-05-29T03:25:16.160Z,88.90
2018-05-29T03:27:43.605Z,88.90
2018-05-29T03:30:11.115Z,88.90
2018-05-29T03:32:38.556Z,88.90
2018-05-29T03:35:06.327Z,88.90
2018-05-29T03:37:33.771Z,88.90
2018-05-29T03:40:01.223Z,88.90
2018-05-29T03:42:28.687Z,88.90
2018-05-29T03:44:56.214Z,89.00
2018-05-29T03:47:24.059Z,89.30
2018-05-29T03:49:51.504Z,89.80
2018-05-29T03:52:18.969Z,90.00
2018-05-29T03:54:46.413Z,90.00
2018-05-29T03:57:13.916Z,90.10
2018-05-29T03:59:41.368Z,90.30
2018-05-29T04:02:08.844Z,90.40
2018-05-29T04:04:36.285Z,90.40
2018-05-29T04:07:03.779Z,90.40
2018-05-29T04:09:31.216Z,90.50
2018-05-29T04:11:58.770Z,90.60
2018-05-29T04:14:26.547Z,90.50
2018-05-29T04:16:53.992Z,90.60
2018-05-29T04:19:21.440Z,90.60
2018-05-29T04:21:48.944Z,91.00
2018-05-29T04:24:16.425Z,91.00
2018-05-29T04:26:44.199Z,90.90
2018-05-29T04:29:12.631Z,91.00
2018-05-29T04:31:40.095Z,90.90
2018-05-29T04:34:07.536Z,91.10
2018-05-29T04:36:34.999Z,91.10
2018-05-29T04:39:02.432Z,91.10
2018-05-29T04:41:29.964Z,91.00
2018-05-29T04:43:57.419Z,91.00
2018-05-29T04:46:24.848Z,91.10
2018-05-29T04:48:52.307Z,91.10
2018-05-29T04:51:19.775Z,91.10
2018-05-29T04:53:47.238Z,91.10
2018-05-29T04:56:14.692Z,91.10
2018-05-29T04:58:42.171Z,91.00
2018-05-29T05:01:09.648Z,90.80
2018-05-29T05:03:37.088Z,90.70
2018-05-29T05:06:04.534Z,90.70
2018-05-29T05:08:32.026Z,90.70
2018-05-29T05:10:59.480Z,90.70
2018-05-29T05:13:26.931Z,90.70
2018-05-29T05:15:54.384Z,90.80
2018-05-29T05:18:21.866Z,90.80
2018-05-29T05:20:49.742Z,90.90
2018-05-29T05:23:17.164Z,90.90
2018-05-29T05:25:44.619Z,91.40
2018-05-29T05:28:12.056Z,91.00
2018-05-29T05:30:39.503Z,91.40
2018-05-29T05:33:07.047Z,91.10
2018-05-29T05:35:34.510Z,91.10
2018-05-29T05:38:01.964Z,91.10
2018-05-29T05:40:29.762Z,91.10
2018-05-29T05:42:57.200Z,91.10
2018-05-29T05:45:24.683Z,91.00
2018-05-29T05:47:52.159Z,91.20
2018-05-29T05:50:19.641Z,91.20
2018-05-29T05:52:47.130Z,91.20
2018-05-29T05:55:14.542Z,91.40
2018-05-29T05:57:41.992Z,91.60
2018-05-29T06:00:09.431Z,91.40
2018-05-29T06:02:36.891Z,91.20
2018-05-29T06:05:04.333Z,91.30
2018-05-29T06:07:31.770Z,91.20
2018-05-29T06:10:00.137Z,91.00
2018-05-29T06:12:27.578Z,90.90
2018-05-29T06:14:55.032Z,90.90
2018-05-29T06:17:22.509Z,90.50
2018-05-29T06:19:49.952Z,90.30
2018-05-29T06:22:17.407Z,90.00
2018-05-29T06:24:44.891Z,90.00
2018-05-29T06:27:12.341Z,89.90
2018-05-29T06:29:39.832Z,89.60
2018-05-29T06:32:07.288Z,89.20
2018-05-29T06:34:34.743Z,89.00
2018-05-29T06:37:02.271Z,89.10
2018-05-29T06:39:29.729Z,89.00
2018-05-29T06:41:57.200Z,88.60
2018-05-29T06:44:24.640Z,88.10
2018-05-29T06:46:52.467Z,87.80
2018-05-29T06:49:19.999Z,87.80
2018-05-29T06:51:47.465Z,88.00
2018-05-29T06:54:14.903Z,88.10
2018-05-29T06:56:42.383Z,88.00
2018-05-29T06:59:09.835Z,88.20
2018-05-29T07:01:37.657Z,88.50
2018-05-29T07:04:05.121Z,88.80
2018-05-29T07:06:32.559Z,89.00
2018-05-29T07:09:00.001Z,88.50
2018-05-29T07:11:27.469Z,88.60
2018-05-29T07:13:54.903Z,88.70
2018-05-29T07:16:22.432Z,88.90
2018-05-29T07:18:49.875Z,89.10
2018-05-29T07:21:17.332Z,89.30
2018-05-29T07:23:44.783Z,89.10
2018-05-29T07:26:12.257Z,89.40
2018-05-29T07:28:39.712Z,89.10
2018-05-29T07:31:07.148Z,88.50
2018-05-29T07:33:34.591Z,88.40
2018-05-29T07:36:02.804Z,88.40
2018-05-29T07:38:30.264Z,88.30
2018-05-29T07:40:57.718Z,88.70
2018-05-29T07:43:25.155Z,89.00
2018-05-29T07:45:52.599Z,89.30
2018-05-29T07:48:20.432Z,89.30
2018-05-29T07:50:47.913Z,89.30
2018-05-29T07:53:15.386Z,90.00
2018-05-29T07:55:42.830Z,89.90
2018-05-29T07:58:10.773Z,89.60
2018-05-29T08:00:38.561Z,90.00
2018-05-29T08:03:06.035Z,89.90
2018-05-29T08:05:33.493Z,90.00
2018-05-29T08:08:00.940Z,90.30
2018-05-29T08:10:28.421Z,90.50
2018-05-29T08:12:55.872Z,90.30
2018-05-29T08:15:23.344Z,90.30
2018-05-29T08:17:50.792Z,89.80
2018-05-29T08:20:18.268Z,89.20
2018-05-29T08:22:45.708Z,88.50
2018-05-29T08:25:13.179Z,87.30
2018-05-29T08:27:40.621Z,86.70
2018-05-29T08:30:08.080Z,87.40
2018-05-29T08:32:35.551Z,85.90
2018-05-29T08:35:02.980Z,85.70
2018-05-29T08:37:30.438Z,85.20
2018-05-29T08:39:57.886Z,85.00
2018-05-29T08:42:25.522Z,84.30
2018-05-29T08:44:52.977Z,83.50
2018-05-29T08:47:20.423Z,82.90
2018-05-29T08:49:47.884Z,82.00
2018-05-29T08:52:15.731Z,81.20
2018-05-29T08:54:43.163Z,79.70
2018-05-29T08:57:10.596Z,79.90
2018-05-29T08:59:38.060Z,79.60
2018-05-29T09:02:05.521Z,78.60
2018-05-29T09:04:32.965Z,78.20
2018-05-29T09:07:00.428Z,77.40
2018-05-29T09:09:27.907Z,76.80
2018-05-29T09:11:55.406Z,76.60
2018-05-29T09:14:22.800Z,77.20
2018-05-29T09:16:50.243Z,77.10
2018-05-29T09:19:17.793Z,76.90
2018-05-29T09:21:45.293Z,76.20
2018-05-29T09:24:12.728Z,77.00
2018-05-29T09:26:40.547Z,77.60
2018-05-29T09:29:08.012Z,76.70
2018-05-29T09:31:35.482Z,74.30
2018-05-29T09:34:02.927Z,73.70
2018-05-29T09:36:30.356Z,73.30
2018-05-29T09:38:57.807Z,72.00
2018-05-29T09:41:25.349Z,71.10
2018-05-29T09:43:52.867Z,71.00
2018-05-29T09:46:20.307Z,70.90
2018-05-29T09:48:47.747Z,71.00
2018-05-29T09:51:15.595Z,70.80
2018-05-29T09:53:43.447Z,71.60
2018-05-29T09:56:10.935Z,72.50
2018-05-29T09:58:38.445Z,71.80
2018-05-29T10:01:05.912Z,71.20
2018-05-29T10:03:33.380Z,69.80
2018-05-29T10:06:01.180Z,69.00
2018-05-29T10:08:28.619Z,68.10
2018-05-29T10:10:56.053Z,65.60
2018-05-29T10:13:23.632Z,65.00
2018-05-29T10:15:51.075Z,63.20
2018-05-29T10:18:18.516Z,61.20
2018-05-29T10:20:45.978Z,60.80
2018-05-29T10:23:13.412Z,61.20
2018-05-29T10:25:40.872Z,59.50
2018-05-29T10:28:08.404Z,58.10
2018-05-29T10:30:35.837Z,57.80
2018-05-29T10:33:03.309Z,57.60
2018-05-29T10:35:30.774Z,56.70
2018-05-29T10:37:58.221Z,54.90
2018-05-29T10:40:25.670Z,53.00
2018-05-29T10:42:53.507Z,52.20
2018-05-29T10:45:20.983Z,50.90
2018-05-29T10:47:48.457Z,50.20
2018-05-29T10:50:15.888Z,50.00
2018-05-29T10:52:43.748Z,52.30
2018-05-29T10:55:11.199Z,53.70
2018-05-29T10:57:38.634Z,54.00
2018-05-29T11:00:06.083Z,54.30
2018-05-29T11:02:34.495Z,55.60
2018-05-29T11:05:01.953Z,55.60
2018-05-29T11:07:29.382Z,56.40
2018-05-29T11:09:57.228Z,56.70
2018-05-29T11:12:24.684Z,56.90
2018-05-29T11:14:52.117Z,55.10
2018-05-29T11:17:19.572Z,53.40
2018-05-29T11:19:47.011Z,52.60
2018-05-29T11:22:14.447Z,51.00
2018-05-29T11:24:42.080Z,51.20
2018-05-29T11:27:09.516Z,50.20
2018-05-29T11:29:36.972Z,50.10
2018-05-29T11:32:04.417Z,51.00
2018-05-29T11:34:32.264Z,50.30
2018-05-29T11:36:59.895Z,49.50
2018-05-29T11:39:27.331Z,48.60
2018-05-29T11:41:55.567Z,46.90
2018-05-29T11:44:23.010Z,46.80
2018-05-29T11:46:50.454Z,46.10
2018-05-29T11:49:17.899Z,46.10
2018-05-29T11:51:45.340Z,46.30
2018-05-29T11:54:12.839Z,46.90
2018-05-29T11:56:40.264Z,48.10
2018-05-29T11:59:07.716Z,48.40
2018-05-29T12:01:35.182Z,49.80
2018-05-29T12:04:03.188Z,51.20
2018-05-29T12:06:30.637Z,51.90
2018-05-29T12:08:58.844Z,52.80
2018-05-29T12:11:26.308Z,52.70
2018-05-29T12:13:53.996Z,54.30
2018-05-29T12:16:21.634Z,56.00
2018-05-29T12:18:49.116Z,56.40
2018-05-29T12:21:16.566Z,57.50
2018-05-29T12:23:44.010Z,57.30
2018-05-29T12:26:11.485Z,57.80
2018-05-29T12:28:38.943Z,59.00
2018-05-29T12:31:06.387Z,58.00
2018-05-29T12:33:33.824Z,58.00
2018-05-29T12:36:01.277Z,57.20
2018-05-29T12:38:28.813Z,57.20
2018-05-29T12:40:56.471Z,55.50
2018-05-29T12:43:23.923Z,55.00
2018-05-29T12:45:51.364Z,54.10
2018-05-29T12:48:18.826Z,53.10
2018-05-29T12:50:46.523Z,52.90
2018-05-29T12:53:13.992Z,52.00
2018-05-29T12:55:41.412Z,51.70
2018-05-29T12:58:08.877Z,50.80
2018-05-29T13:00:36.345Z,50.90
2018-05-29T13:03:03.779Z,50.00
2018-05-29T13:05:31.622Z,51.20
2018-05-29T13:07:59.061Z,50.40
2018-05-29T13:10:26.521Z,50.70
2018-05-29T13:12:53.991Z,49.60
2018-05-29T13:15:21.452Z,49.70
2018-05-29T13:17:48.988Z,49.40
2018-05-29T13:20:16.445Z,49.20
2018-05-29T13:22:44.249Z,50.00
2018-05-29T13:25:11.688Z,50.30
2018-05-29T13:27:39.278Z,51.80
2018-05-29T13:30:06.708Z,52.90
2018-05-29T13:32:34.329Z,53.20
2018-05-29T13:35:01.815Z,53.80
2018-05-29T13:37:29.646Z,55.80
2018-05-29T13:39:57.099Z,56.30
2018-05-29T13:42:24.572Z,57.10
2018-05-29T13:44:52.103Z,58.10
2018-05-29T13:47:19.891Z,57.80
2018-05-29T13:49:47.343Z,57.30
2018-05-29T13:52:14.813Z,58.70
2018-05-29T13:54:42.275Z,58.60
2018-05-29T13:57:09.770Z,58.70
2018-05-29T13:59:37.607Z,59.20
2018-05-29T14:02:05.066Z,60.40
2018-05-29T14:04:32.528Z,61.60
2018-05-29T14:07:00.408Z,62.70
2018-05-29T14:09:27.913Z,63.50
2018-05-29T14:11:55.453Z,64.10
2018-05-29T14:14:22.893Z,64.70
2018-05-29T14:16:50.343Z,64.00
2018-05-29T14:19:17.789Z,64.10
2018-05-29T14:21:45.264Z,65.30
2018-05-29T14:24:13.009Z,66.00
2018-05-29T14:26:40.520Z,66.10
2018-05-29T14:29:07.986Z,65.90
2018-05-29T14:31:35.477Z,66.10
2018-05-29T14:34:03.306Z,66.10
2018-05-29T14:36:30.746Z,66.40
2018-05-29T14:38:58.201Z,66.40
2018-05-29T14:41:25.784Z,66.40
2018-05-29T14:43:53.331Z,66.70
2018-05-29T14:46:21.023Z,67.20
2018-05-29T14:48:48.467Z,67.50
2018-05-29T14:51:15.925Z,68.50
2018-05-29T14:53:43.424Z,67.80
2018-05-29T14:56:11.298Z,68.00
2018-05-29T14:58:38.762Z,65.30
2018-05-29T15:01:06.228Z,65.60
2018-05-29T15:03:34.077Z,65.70
2018-05-29T15:06:01.570Z,66.90
2018-05-29T15:08:29.311Z,68.20
2018-05-29T15:10:56.956Z,67.90
2018-05-29T15:13:24.388Z,67.80
2018-05-29T15:15:51.944Z,68.80
2018-05-29T15:18:20.173Z,68.30
2018-05-29T15:20:47.624Z,68.10
2018-05-29T15:23:15.076Z,68.90
2018-05-29T15:25:42.546Z,69.90
2018-05-29T15:28:10.010Z,70.60
2018-05-29T15:30:37.443Z,69.90
2018-05-29T15:33:04.891Z,69.40
2018-05-29T15:35:32.729Z,70.50
2018-05-29T15:38:00.183Z,70.50
2018-05-29T15:40:27.661Z,70.00
2018-05-29T15:42:55.127Z,69.00
2018-05-29T15:45:22.660Z,69.60
2018-05-29T15:47:50.115Z,69.10
2018-05-29T15:50:17.569Z,69.20
2018-05-29T15:52:45.360Z,69.40
2018-05-29T15:55:12.825Z,69.90
2018-05-29T15:57:40.323Z,71.40
2018-05-29T16:00:07.789Z,72.30
2018-05-29T16:02:36.010Z,72.20
2018-05-29T16:05:03.460Z,72.10
2018-05-29T16:07:30.937Z,71.80
2018-05-29T16:09:58.380Z,72.20
2018-05-29T16:12:25.888Z,72.10
2018-05-29T16:14:53.347Z,71.20
2018-05-29T16:17:20.790Z,70.30
2018-05-29T16:19:48.270Z,72.00
2018-05-29T16:22:15.724Z,72.90
2018-05-29T16:24:43.164Z,73.50
2018-05-29T16:27:10.680Z,73.00
2018-05-29T16:29:38.166Z,72.70
2018-05-29T16:32:05.604Z,73.70
2018-05-29T16:34:33.067Z,75.90
2018-05-29T16:37:00.492Z,75.80
2018-05-29T16:39:27.964Z,75.10
2018-05-29T16:41:55.400Z,74.50
2018-05-29T16:44:22.943Z,74.80
2018-05-29T16:46:50.751Z,75.40
2018-05-29T16:49:18.218Z,76.10
2018-05-29T16:51:45.696Z,76.70
2018-05-29T16:54:13.144Z,76.90
2018-05-29T16:56:40.703Z,77.20
2018-05-29T16:59:08.159Z,77.80
2018-05-29T17:01:35.621Z,78.10
2018-05-29T17:04:03.085Z,78.10
2018-05-29T17:06:30.526Z,78.60
2018-05-29T17:08:58.328Z,79.40
2018-05-29T17:11:25.937Z,79.70
2018-05-29T17:13:54.151Z,80.50
2018-05-29T17:16:21.605Z,80.30
2018-05-29T17:18:49.081Z,80.00
2018-05-29T17:21:16.552Z,79.90
2018-05-29T17:23:44.010Z,80.50
2018-05-29T17:26:11.448Z,81.20
2018-05-29T17:28:38.921Z,81.20
2018-05-29T17:31:06.372Z,80.60
2018-05-29T17:33:33.832Z,80.70
2018-05-29T17:36:01.272Z,80.80
2018-05-29T17:38:28.728Z,80.70
2018-05-29T17:40:56.184Z,81.00
2018-05-29T17:43:23.627Z,82.20
2018-05-29T17:45:51.100Z,81.10
2018-05-29T17:48:18.565Z,81.70
2018-05-29T17:50:46.013Z,81.80
2018-05-29T17:53:13.475Z,81.90
2018-05-29T17:55:40.913Z,82.00
2018-05-29T17:58:08.429Z,82.10
2018-05-29T18:00:35.863Z,82.60
2018-05-29T18:03:03.303Z,82.80
2018-05-29T18:05:30.761Z,83.10
2018-05-29T18:07:58.271Z,83.70
2018-05-29T18:10:25.675Z,84.00
2018-05-29T18:12:53.177Z,83.90
2018-05-29T18:15:20.620Z,83.70
2018-05-29T18:17:48.063Z,83.60
2018-05-29T18:20:15.562Z,83.30
2018-05-29T18:22:43.012Z,83.40
2018-05-29T18:25:10.580Z,83.30
2018-05-29T18:27:38.037Z,83.50
2018-05-29T18:30:05.719Z,83.50
2018-05-29T18:32:33.137Z,83.60
2018-05-29T18:35:00.595Z,83.70
2018-05-29T18:37:28.057Z,83.80
2018-05-29T18:39:55.521Z,83.90
2018-05-29T18:42:22.978Z,84.00
2018-05-29T18:44:50.423Z,84.20
2018-05-29T18:47:18.037Z,84.50
2018-05-29T18:49:45.501Z,84.90
2018-05-29T18:52:12.958Z,85.10
2018-05-29T18:54:40.440Z,85.10
2018-05-29T18:57:07.885Z,85.10
2018-05-29T18:59:35.331Z,85.30
2018-05-29T19:02:02.803Z,85.40
2018-05-29T19:04:30.253Z,85.50
2018-05-29T19:06:57.714Z,85.50
2018-05-29T19:09:25.215Z,85.60
2018-05-29T19:11:52.651Z,85.80
2018-05-29T19:14:20.113Z,86.00
2018-05-29T19:16:48.027Z,86.00
2018-05-29T19:19:15.464Z,85.90
2018-05-29T19:21:42.924Z,85.90
2018-05-29T19:24:10.366Z,86.90
2018-05-29T19:26:37.857Z,86.40
2018-05-29T19:29:05.301Z,86.40
2018-05-29T19:31:32.776Z,86.40
2018-05-29T19:34:00.224Z,86.60
2018-05-29T19:36:27.665Z,86.60
2018-05-29T19:38:56.152Z,86.50
2018-05-29T19:41:23.606Z,86.40
2018-05-29T19:43:51.049Z,86.20
2018-05-29T19:46:18.516Z,86.10
2018-05-29T19:48:45.993Z,86.00
2018-05-29T19:51:13.456Z,86.30
2018-05-29T19:53:41.252Z,86.30
2018-05-29T19:56:08.741Z,86.40
2018-05-29T19:58:36.176Z,86.50
2018-05-29T20:01:03.646Z,86.90
2018-05-29T20:03:31.140Z,86.70
2018-05-29T20:05:58.571Z,86.60
2018-05-29T20:08:26.042Z,86.20
2018-05-29T20:10:53.964Z,86.60
2018-05-29T20:13:21.392Z,86.40
2018-05-29T20:15:48.840Z,86.20
2018-05-29T20:18:16.357Z,86.70
2018-05-29T20:20:43.825Z,86.60
2018-05-29T20:23:11.895Z,87.00
2018-05-29T20:25:39.349Z,87.00
2018-05-29T20:28:06.800Z,87.20
2018-05-29T20:30:34.257Z,87.40
2018-05-29T20:33:01.892Z,87.30
2018-05-29T20:35:29.330Z,87.50
2018-05-29T20:37:56.763Z,88.00
2018-05-29T20:40:24.327Z,88.00
2018-05-29T20:42:51.821Z,88.40
2018-05-29T20:45:19.267Z,88.80
2018-05-29T20:47:46.715Z,89.10
2018-05-29T20:50:14.153Z,89.40
2018-05-29T20:52:41.682Z,89.70
2018-05-29T20:55:09.073Z,90.10
2018-05-29T20:57:36.887Z,90.10
2018-05-29T21:00:04.331Z,90.30
2018-05-29T21:02:31.781Z,90.20
2018-05-29T21:04:59.239Z,90.10
2018-05-29T21:07:26.676Z,90.00
2018-05-29T21:09:54.224Z,90.10
2018-05-29T21:12:21.667Z,90.30
2018-05-29T21:14:49.111Z,90.40
2018-05-29T21:17:16.625Z,90.30
2018-05-29T21:19:44.471Z,90.40
2018-05-29T21:22:12.326Z,90.50
2018-05-29T21:24:39.771Z,90.60
2018-05-29T21:27:07.264Z,90.70
2018-05-29T21:29:34.715Z,90.70
2018-05-29T21:32:02.255Z,90.80
2018-05-29T21:34:29.702Z,91.10
2018-05-29T21:36:57.150Z,90.90
2018-05-29T21:39:24.804Z,91.10
2018-05-29T21:41:52.835Z,91.00
2018-05-29T21:44:20.285Z,91.10
2018-05-29T21:46:47.727Z,91.10
2018-05-29T21:49:15.188Z,91.10
2018-05-29T21:51:42.649Z,91.20
2018-05-29T21:54:10.527Z,91.10
2018-05-29T21:56:38.016Z,91.20
2018-05-29T21:59:05.472Z,91.10
2018-05-29T22:01:32.926Z,91.20
2018-05-29T22:04:03.292Z,91.20
2018-05-29T22:06:30.744Z,91.20
2018-05-29T22:08:58.603Z,91.20
2018-05-29T22:11:26.152Z,91.40
2018-05-29T22:13:53.595Z,91.80
2018-05-29T22:16:21.035Z,91.50
2018-05-29T22:18:48.493Z,91.70
2018-05-29T22:21:15.971Z,91.70
2018-05-29T22:23:43.463Z,91.80
2018-05-29T22:26:10.926Z,91.90
2018-05-29T22:28:38.383Z,92.00
2018-05-29T22:31:05.847Z,92.10
2018-05-29T22:33:33.296Z,92.20
2018-05-29T22:36:00.760Z,92.30
2018-05-29T22:38:28.239Z,92.50
2018-05-29T22:40:55.664Z,92.50
2018-05-29T22:43:23.149Z,92.70
2018-05-29T22:45:50.948Z,92.80
2018-05-29T22:48:18.438Z,92.90
2018-05-29T22:50:46.100Z,93.00
2018-05-29T22:53:13.551Z,93.10
2018-05-29T22:55:41.252Z,93.10
2018-05-29T22:58:08.700Z,93.10
2018-05-29T23:00:36.152Z,93.10
2018-05-29T23:03:03.596Z,93.20
2018-05-29T23:05:31.056Z,93.30
2018-05-29T23:07:58.507Z,93.40
2018-05-29T23:10:26.051Z,93.50
2018-05-29T23:12:53.509Z,93.50
2018-05-29T23:15:20.935Z,93.50
2018-05-29T23:17:48.404Z,93.70
2018-05-29T23:20:15.862Z,93.80
2018-05-29T23:22:43.710Z,93.80
2018-05-29T23:25:11.559Z,93.90
2018-05-29T23:27:39.023Z,94.00
2018-05-29T23:30:06.484Z,94.00
2018-05-29T23:32:33.996Z,94.20
2018-05-29T23:35:01.429Z,94.30
2018-05-29T23:37:29.057Z,94.30
2018-05-29T23:39:56.498Z,94.30
2018-05-29T23:42:23.954Z,94.40
2018-05-29T23:44:52.191Z,94.50
2018-05-29T23:47:19.650Z,94.50
2018-05-29T23:49:47.430Z,94.60
2018-05-29T23:52:14.885Z,94.70
2018-05-29T23:54:42.360Z,94.80
2018-05-29T23:57:10.223Z,94.80
2018-05-29T23:59:37.719Z,94.90
